Hovedside
METAR-TAF:

METAR-TAF

Lufthavner :

Kristianstad, Sverige

breddegrad: 55-55N, lengdegrad: 014-05E, høyde over havet: 23 m

Gjeldene værobservasjon

Denne rapporten ble laget for 34 minutter siden, klokken 19:20 UTC
Vind 5 kt fra Sørøst
Temperatur 19°C
Luftfuktighet 83%
Trykk 1015 hPa
Sikt 10 km eller mer

METAR: ESMK 161920Z AUTO 13005KT 9999 NCD 19/16 Q1015

Tid: 21:54 (19:54 UTC)

Varsel

Denne rapporten ble laget for 5 timer og 52 minutter siden, klokken 14:02 UTC
Varsel gyldig fra 16. klokken 15 UTC til 16. klokken 19 UTC
Vind 12 kt fra Sør-sørvest
Sikt 10 km eller mer
Spredte skyer i en høyde av 3000 ft

TAF: ESMK 161402Z 1615/1619 20012KT 9999 SCT030

Værobservasjoner og værvarsel for over 4000 flyplasser (METAR- og TAF-rapporter).

Tilgjengelige stasjoner er representert av de røde og gule prikkene på kartet.

Hold musepekeren over prikken for å se navnet på stasjonen.

Klikk så for å se værobservasjoner og -varsler.

For å forandre kartet kan du klikke på den grønne knappen med svart kryss for å zoome inn, på den grønne knappen med strek for å zoome ut, eller på de grønne pilene for å se tilstøtende kart.


METAR-TAF: